sensor_id;sensor_type;location;lat;lon;timestamp;P1;durP1;ratioP1;P2;durP2;ratioP2
4738;SDS011;2383;48.632;10.156;2022-10-31T00:01:19;10.57;;;4.30;;
4738;SDS011;2383;48.632;10.156;2022-10-31T00:05:23;10.33;;;4.47;;
4738;SDS011;2383;48.632;10.156;2022-10-31T00:09:25;11.80;;;4.17;;
4738;SDS011;2383;48.632;10.156;2022-10-31T00:13:26;9.57;;;4.17;;
4738;SDS011;2383;48.632;10.156;2022-10-31T00:17:29;11.43;;;4.73;;
4738;SDS011;2383;48.632;10.156;2022-10-31T00:21:32;13.13;;;4.53;;
4738;SDS011;2383;48.632;10.156;2022-10-31T00:25:36;9.40;;;4.63;;
4738;SDS011;2383;48.632;10.156;2022-10-31T00:29:39;10.80;;;4.63;;
4738;SDS011;2383;48.632;10.156;2022-10-31T00:33:41;9.80;;;4.30;;
4738;SDS011;2383;48.632;10.156;2022-10-31T00:37:43;9.47;;;4.20;;
4738;SDS011;2383;48.632;10.156;2022-10-31T00:41:46;13.40;;;4.23;;
4738;SDS011;2383;48.632;10.156;2022-10-31T00:45:48;11.37;;;4.50;;
4738;SDS011;2383;48.632;10.156;2022-10-31T00:49:50;8.80;;;4.07;;
4738;SDS011;2383;48.632;10.156;2022-10-31T00:53:52;10.93;;;4.60;;
4738;SDS011;2383;48.632;10.156;2022-10-31T00:57:54;8.50;;;4.37;;
4738;SDS011;2383;48.632;10.156;2022-10-31T01:01:56;8.00;;;4.28;;
4738;SDS011;2383;48.632;10.156;2022-10-31T01:06:03;7.03;;;4.13;;
4738;SDS011;2383;48.632;10.156;2022-10-31T01:10:07;7.17;;;4.20;;
4738;SDS011;2383;48.632;10.156;2022-10-31T01:14:10;14.00;;;4.53;;
4738;SDS011;2383;48.632;10.156;2022-10-31T01:18:12;13.23;;;4.57;;
4738;SDS011;2383;48.632;10.156;2022-10-31T01:22:14;11.73;;;4.20;;
4738;SDS011;2383;48.632;10.156;2022-10-31T01:26:17;12.17;;;4.40;;
4738;SDS011;2383;48.632;10.156;2022-10-31T01:30:24;10.57;;;4.10;;
4738;SDS011;2383;48.632;10.156;2022-10-31T01:34:28;10.70;;;3.80;;
4738;SDS011;2383;48.632;10.156;2022-10-31T01:38:30;9.50;;;4.63;;
4738;SDS011;2383;48.632;10.156;2022-10-31T01:42:31;11.23;;;4.33;;
4738;SDS011;2383;48.632;10.156;2022-10-31T01:46:34;10.73;;;4.70;;
4738;SDS011;2383;48.632;10.156;2022-10-31T01:50:39;10.33;;;4.60;;
4738;SDS011;2383;48.632;10.156;2022-10-31T01:54:46;8.67;;;4.17;;
4738;SDS011;2383;48.632;10.156;2022-10-31T01:58:52;8.43;;;4.47;;
4738;SDS011;2383;48.632;10.156;2022-10-31T02:02:56;7.63;;;3.80;;
4738;SDS011;2383;48.632;10.156;2022-10-31T02:07:00;8.00;;;4.00;;
4738;SDS011;2383;48.632;10.156;2022-10-31T02:11:04;5.63;;;4.17;;
4738;SDS011;2383;48.632;10.156;2022-10-31T02:15:08;13.17;;;3.93;;
4738;SDS011;2383;48.632;10.156;2022-10-31T02:19:11;6.90;;;3.50;;
4738;SDS011;2383;48.632;10.156;2022-10-31T02:36:30;9.40;;;3.63;;
4738;SDS011;2383;48.632;10.156;2022-10-31T02:40:38;9.43;;;3.83;;
4738;SDS011;2383;48.632;10.156;2022-10-31T02:44:51;6.27;;;3.90;;
4738;SDS011;2383;48.632;10.156;2022-10-31T02:48:58;8.07;;;4.10;;
4738;SDS011;2383;48.632;10.156;2022-10-31T02:53:06;8.60;;;4.13;;
4738;SDS011;2383;48.632;10.156;2022-10-31T02:57:11;7.57;;;3.53;;
4738;SDS011;2383;48.632;10.156;2022-10-31T03:01:35;8.73;;;4.10;;
4738;SDS011;2383;48.632;10.156;2022-10-31T03:10:12;7.00;;;3.93;;
4738;SDS011;2383;48.632;10.156;2022-10-31T03:14:48;10.87;;;4.03;;
4738;SDS011;2383;48.632;10.156;2022-10-31T03:23:36;12.57;;;4.23;;
4738;SDS011;2383;48.632;10.156;2022-10-31T03:27:40;8.13;;;3.57;;
4738;SDS011;2383;48.632;10.156;2022-10-31T03:31:46;9.17;;;3.70;;
4738;SDS011;2383;48.632;10.156;2022-10-31T03:35:54;6.70;;;3.73;;
4738;SDS011;2383;48.632;10.156;2022-10-31T03:39:58;7.67;;;4.07;;
4738;SDS011;2383;48.632;10.156;2022-10-31T03:44:05;8.63;;;4.40;;
4738;SDS011;2383;48.632;10.156;2022-10-31T03:48:17;6.23;;;3.27;;
4738;SDS011;2383;48.632;10.156;2022-10-31T03:56:44;13.67;;;3.70;;
4738;SDS011;2383;48.632;10.156;2022-10-31T04:00:54;10.07;;;3.73;;
4738;SDS011;2383;48.632;10.156;2022-10-31T04:04:59;5.77;;;3.70;;
4738;SDS011;2383;48.632;10.156;2022-10-31T04:09:03;10.20;;;3.80;;
4738;SDS011;2383;48.632;10.156;2022-10-31T04:13:08;8.40;;;3.33;;
4738;SDS011;2383;48.632;10.156;2022-10-31T04:17:14;10.00;;;3.17;;
4738;SDS011;2383;48.632;10.156;2022-10-31T04:21:18;9.17;;;3.53;;
4738;SDS011;2383;48.632;10.156;2022-10-31T04:25:20;9.50;;;3.27;;
4738;SDS011;2383;48.632;10.156;2022-10-31T04:29:22;5.90;;;3.23;;
4738;SDS011;2383;48.632;10.156;2022-10-31T04:33:24;11.70;;;4.10;;
4738;SDS011;2383;48.632;10.156;2022-10-31T04:37:26;12.97;;;3.40;;
4738;SDS011;2383;48.632;10.156;2022-10-31T04:41:27;8.30;;;3.43;;
4738;SDS011;2383;48.632;10.156;2022-10-31T04:45:43;7.93;;;3.33;;
4738;SDS011;2383;48.632;10.156;2022-10-31T04:49:45;6.83;;;3.27;;
4738;SDS011;2383;48.632;10.156;2022-10-31T04:53:47;6.93;;;3.80;;
4738;SDS011;2383;48.632;10.156;2022-10-31T04:57:49;7.47;;;3.30;;
4738;SDS011;2383;48.632;10.156;2022-10-31T05:01:52;10.10;;;3.33;;
4738;SDS011;2383;48.632;10.156;2022-10-31T05:05:54;5.80;;;3.20;;
4738;SDS011;2383;48.632;10.156;2022-10-31T05:09:56;8.80;;;3.47;;
4738;SDS011;2383;48.632;10.156;2022-10-31T05:13:57;7.53;;;3.17;;
4738;SDS011;2383;48.632;10.156;2022-10-31T05:17:59;9.97;;;3.57;;
4738;SDS011;2383;48.632;10.156;2022-10-31T05:22:01;10.13;;;3.70;;
4738;SDS011;2383;48.632;10.156;2022-10-31T05:26:03;7.50;;;3.43;;
4738;SDS011;2383;48.632;10.156;2022-10-31T05:30:06;8.83;;;3.93;;
4738;SDS011;2383;48.632;10.156;2022-10-31T05:34:08;12.27;;;5.43;;
4738;SDS011;2383;48.632;10.156;2022-10-31T05:38:09;12.90;;;5.73;;
4738;SDS011;2383;48.632;10.156;2022-10-31T05:42:11;8.53;;;5.17;;
4738;SDS011;2383;48.632;10.156;2022-10-31T05:46:13;11.73;;;4.50;;
4738;SDS011;2383;48.632;10.156;2022-10-31T05:50:15;7.43;;;4.57;;
4738;SDS011;2383;48.632;10.156;2022-10-31T05:54:16;12.20;;;5.17;;
4738;SDS011;2383;48.632;10.156;2022-10-31T05:58:18;8.23;;;4.17;;
4738;SDS011;2383;48.632;10.156;2022-10-31T06:02:20;9.13;;;4.33;;
4738;SDS011;2383;48.632;10.156;2022-10-31T06:06:22;6.87;;;3.70;;
4738;SDS011;2383;48.632;10.156;2022-10-31T06:10:24;8.10;;;4.00;;
4738;SDS011;2383;48.632;10.156;2022-10-31T06:14:27;6.80;;;4.07;;
4738;SDS011;2383;48.632;10.156;2022-10-31T06:18:32;14.43;;;4.43;;
4738;SDS011;2383;48.632;10.156;2022-10-31T06:22:34;9.37;;;4.10;;
4738;SDS011;2383;48.632;10.156;2022-10-31T06:26:36;9.10;;;4.37;;
4738;SDS011;2383;48.632;10.156;2022-10-31T06:30:38;8.53;;;4.30;;
4738;SDS011;2383;48.632;10.156;2022-10-31T06:34:40;19.43;;;4.47;;
4738;SDS011;2383;48.632;10.156;2022-10-31T06:38:42;8.93;;;4.50;;
4738;SDS011;2383;48.632;10.156;2022-10-31T06:42:44;12.50;;;4.40;;
4738;SDS011;2383;48.632;10.156;2022-10-31T06:46:46;10.60;;;4.10;;
4738;SDS011;2383;48.632;10.156;2022-10-31T06:50:49;8.10;;;5.17;;
4738;SDS011;2383;48.632;10.156;2022-10-31T06:54:53;9.07;;;5.80;;
4738;SDS011;2383;48.632;10.156;2022-10-31T06:58:55;10.90;;;4.67;;
4738;SDS011;2383;48.632;10.156;2022-10-31T07:03:02;9.80;;;3.60;;
4738;SDS011;2383;48.632;10.156;2022-10-31T07:07:05;7.03;;;4.27;;
4738;SDS011;2383;48.632;10.156;2022-10-31T07:11:07;14.43;;;4.90;;
4738;SDS011;2383;48.632;10.156;2022-10-31T07:15:08;12.33;;;4.30;;
4738;SDS011;2383;48.632;10.156;2022-10-31T07:19:10;11.70;;;4.90;;
4738;SDS011;2383;48.632;10.156;2022-10-31T07:23:12;10.93;;;5.43;;
4738;SDS011;2383;48.632;10.156;2022-10-31T07:27:14;19.90;;;8.67;;
4738;SDS011;2383;48.632;10.156;2022-10-31T07:31:16;13.67;;;7.53;;
4738;SDS011;2383;48.632;10.156;2022-10-31T07:35:20;25.10;;;18.50;;
4738;SDS011;2383;48.632;10.156;2022-10-31T07:39:22;22.30;;;6.83;;
4738;SDS011;2383;48.632;10.156;2022-10-31T07:43:24;13.27;;;6.30;;
4738;SDS011;2383;48.632;10.156;2022-10-31T07:47:26;14.60;;;4.80;;
4738;SDS011;2383;48.632;10.156;2022-10-31T07:51:28;12.93;;;4.60;;
4738;SDS011;2383;48.632;10.156;2022-10-31T07:55:30;9.87;;;4.57;;
4738;SDS011;2383;48.632;10.156;2022-10-31T07:59:33;12.47;;;4.80;;
4738;SDS011;2383;48.632;10.156;2022-10-31T08:03:34;10.20;;;4.83;;
4738;SDS011;2383;48.632;10.156;2022-10-31T08:07:36;12.77;;;5.10;;
4738;SDS011;2383;48.632;10.156;2022-10-31T08:11:38;13.60;;;6.00;;
4738;SDS011;2383;48.632;10.156;2022-10-31T08:15:40;11.07;;;4.73;;
4738;SDS011;2383;48.632;10.156;2022-10-31T08:19:43;10.90;;;4.90;;
4738;SDS011;2383;48.632;10.156;2022-10-31T08:23:44;13.87;;;4.50;;
4738;SDS011;2383;48.632;10.156;2022-10-31T08:27:50;16.33;;;5.47;;
4738;SDS011;2383;48.632;10.156;2022-10-31T08:31:52;10.27;;;4.47;;
4738;SDS011;2383;48.632;10.156;2022-10-31T08:35:54;13.57;;;4.57;;
4738;SDS011;2383;48.632;10.156;2022-10-31T08:39:56;15.73;;;4.90;;
4738;SDS011;2383;48.632;10.156;2022-10-31T08:43:58;15.00;;;4.90;;
4738;SDS011;2383;48.632;10.156;2022-10-31T08:48:02;14.70;;;5.53;;
4738;SDS011;2383;48.632;10.156;2022-10-31T08:52:05;10.17;;;5.30;;
4738;SDS011;2383;48.632;10.156;2022-10-31T08:56:14;10.03;;;5.30;;
4738;SDS011;2383;48.632;10.156;2022-10-31T09:00:16;14.75;;;6.43;;
4738;SDS011;2383;48.632;10.156;2022-10-31T09:04:21;14.83;;;7.20;;
4738;SDS011;2383;48.632;10.156;2022-10-31T09:08:22;18.98;;;9.15;;
4738;SDS011;2383;48.632;10.156;2022-10-31T09:12:25;28.90;;;13.03;;
4738;SDS011;2383;48.632;10.156;2022-10-31T09:16:26;31.40;;;16.02;;
4738;SDS011;2383;48.632;10.156;2022-10-31T09:20:28;21.92;;;10.40;;
4738;SDS011;2383;48.632;10.156;2022-10-31T09:24:34;34.20;;;16.45;;
4738;SDS011;2383;48.632;10.156;2022-10-31T09:29:05;35.85;;;15.75;;
4738;SDS011;2383;48.632;10.156;2022-10-31T09:33:34;22.77;;;11.73;;
4738;SDS011;2383;48.632;10.156;2022-10-31T09:37:36;20.60;;;9.40;;
4738;SDS011;2383;48.632;10.156;2022-10-31T09:51:12;14.63;;;9.05;;
4738;SDS011;2383;48.632;10.156;2022-10-31T10:00:06;18.73;;;9.68;;
4738;SDS011;2383;48.632;10.156;2022-10-31T10:04:28;20.23;;;9.73;;
4738;SDS011;2383;48.632;10.156;2022-10-31T10:08:44;18.13;;;10.00;;
4738;SDS011;2383;48.632;10.156;2022-10-31T10:13:05;21.50;;;10.40;;
4738;SDS011;2383;48.632;10.156;2022-10-31T10:30:21;27.88;;;14.57;;
4738;SDS011;2383;48.632;10.156;2022-10-31T10:34:45;28.63;;;18.73;;
4738;SDS011;2383;48.632;10.156;2022-10-31T10:38:55;34.33;;;20.60;;
4738;SDS011;2383;48.632;10.156;2022-10-31T10:47:25;28.75;;;17.35;;
4738;SDS011;2383;48.632;10.156;2022-10-31T10:56:15;31.77;;;16.50;;
4738;SDS011;2383;48.632;10.156;2022-10-31T11:00:42;26.45;;;17.45;;
4738;SDS011;2383;48.632;10.156;2022-10-31T11:04:50;25.85;;;17.10;;
4738;SDS011;2383;48.632;10.156;2022-10-31T11:08:54;25.23;;;17.00;;
4738;SDS011;2383;48.632;10.156;2022-10-31T11:18:38;36.10;;;17.90;;
4738;SDS011;2383;48.632;10.156;2022-10-31T11:22:44;28.33;;;18.15;;
4738;SDS011;2383;48.632;10.156;2022-10-31T11:26:50;33.58;;;19.33;;
4738;SDS011;2383;48.632;10.156;2022-10-31T11:30:53;31.55;;;18.90;;
4738;SDS011;2383;48.632;10.156;2022-10-31T11:34:59;30.15;;;19.90;;
4738;SDS011;2383;48.632;10.156;2022-10-31T11:39:03;31.10;;;18.23;;
4738;SDS011;2383;48.632;10.156;2022-10-31T11:43:12;37.30;;;19.13;;
4738;SDS011;2383;48.632;10.156;2022-10-31T11:47:22;26.20;;;19.95;;
4738;SDS011;2383;48.632;10.156;2022-10-31T11:51:30;33.70;;;20.70;;
4738;SDS011;2383;48.632;10.156;2022-10-31T11:55:44;33.67;;;20.52;;
4738;SDS011;2383;48.632;10.156;2022-10-31T12:00:17;34.55;;;22.48;;
4738;SDS011;2383;48.632;10.156;2022-10-31T12:04:48;36.92;;;22.17;;
4738;SDS011;2383;48.632;10.156;2022-10-31T12:08:52;40.90;;;21.92;;
4738;SDS011;2383;48.632;10.156;2022-10-31T12:12:57;32.13;;;20.10;;
4738;SDS011;2383;48.632;10.156;2022-10-31T12:17:20;34.35;;;20.05;;
4738;SDS011;2383;48.632;10.156;2022-10-31T12:25:52;35.63;;;19.05;;
4738;SDS011;2383;48.632;10.156;2022-10-31T12:30:15;34.45;;;19.75;;
4738;SDS011;2383;48.632;10.156;2022-10-31T12:43:47;30.83;;;20.15;;
4738;SDS011;2383;48.632;10.156;2022-10-31T13:01:09;34.05;;;23.52;;
4738;SDS011;2383;48.632;10.156;2022-10-31T13:05:41;33.92;;;23.25;;
4738;SDS011;2383;48.632;10.156;2022-10-31T13:09:50;33.88;;;21.35;;
4738;SDS011;2383;48.632;10.156;2022-10-31T13:14:11;31.90;;;20.85;;
4738;SDS011;2383;48.632;10.156;2022-10-31T13:22:36;26.65;;;18.02;;
4738;SDS011;2383;48.632;10.156;2022-10-31T13:30:50;25.73;;;17.60;;
4738;SDS011;2383;48.632;10.156;2022-10-31T13:34:55;31.52;;;20.42;;
4738;SDS011;2383;48.632;10.156;2022-10-31T13:39:03;32.10;;;20.27;;
4738;SDS011;2383;48.632;10.156;2022-10-31T13:47:57;28.73;;;19.63;;
4738;SDS011;2383;48.632;10.156;2022-10-31T13:52:16;31.90;;;20.98;;
4738;SDS011;2383;48.632;10.156;2022-10-31T13:56:34;30.70;;;19.95;;
4738;SDS011;2383;48.632;10.156;2022-10-31T14:00:36;29.05;;;19.23;;
4738;SDS011;2383;48.632;10.156;2022-10-31T14:04:48;29.33;;;19.67;;
4738;SDS011;2383;48.632;10.156;2022-10-31T14:08:54;27.65;;;18.27;;
4738;SDS011;2383;48.632;10.156;2022-10-31T14:13:15;33.47;;;19.58;;
4738;SDS011;2383;48.632;10.156;2022-10-31T14:17:27;32.00;;;19.58;;
4738;SDS011;2383;48.632;10.156;2022-10-31T14:21:38;29.73;;;19.65;;
4738;SDS011;2383;48.632;10.156;2022-10-31T14:25:43;31.65;;;20.30;;
4738;SDS011;2383;48.632;10.156;2022-10-31T14:30:07;34.22;;;21.83;;
4738;SDS011;2383;48.632;10.156;2022-10-31T14:34:18;30.52;;;20.70;;
4738;SDS011;2383;48.632;10.156;2022-10-31T14:51:23;32.97;;;22.35;;
4738;SDS011;2383;48.632;10.156;2022-10-31T14:55:29;35.70;;;22.63;;
4738;SDS011;2383;48.632;10.156;2022-10-31T14:59:35;30.83;;;20.48;;
4738;SDS011;2383;48.632;10.156;2022-10-31T15:03:39;32.47;;;22.35;;
4738;SDS011;2383;48.632;10.156;2022-10-31T15:12:38;39.78;;;21.67;;
4738;SDS011;2383;48.632;10.156;2022-10-31T15:16:40;33.65;;;22.48;;
4738;SDS011;2383;48.632;10.156;2022-10-31T15:20:45;28.50;;;21.50;;
4738;SDS011;2383;48.632;10.156;2022-10-31T15:24:55;35.97;;;20.15;;
4738;SDS011;2383;48.632;10.156;2022-10-31T15:29:01;40.80;;;23.83;;
4738;SDS011;2383;48.632;10.156;2022-10-31T15:33:19;34.67;;;22.50;;
4738;SDS011;2383;48.632;10.156;2022-10-31T15:37:26;30.63;;;22.27;;
4738;SDS011;2383;48.632;10.156;2022-10-31T15:45:59;33.22;;;21.63;;
4738;SDS011;2383;48.632;10.156;2022-10-31T15:50:27;38.05;;;23.83;;
4738;SDS011;2383;48.632;10.156;2022-10-31T15:54:49;40.40;;;26.75;;
4738;SDS011;2383;48.632;10.156;2022-10-31T15:59:11;37.05;;;27.33;;
4738;SDS011;2383;48.632;10.156;2022-10-31T16:03:26;38.13;;;26.33;;
4738;SDS011;2383;48.632;10.156;2022-10-31T16:07:49;39.28;;;26.55;;
4738;SDS011;2383;48.632;10.156;2022-10-31T16:11:57;38.08;;;25.02;;
4738;SDS011;2383;48.632;10.156;2022-10-31T16:16:23;37.88;;;26.70;;
4738;SDS011;2383;48.632;10.156;2022-10-31T16:20:40;38.72;;;28.60;;
4738;SDS011;2383;48.632;10.156;2022-10-31T16:29:46;44.17;;;29.52;;
4738;SDS011;2383;48.632;10.156;2022-10-31T16:34:09;41.92;;;28.73;;
4738;SDS011;2383;48.632;10.156;2022-10-31T16:38:13;44.40;;;32.05;;
4738;SDS011;2383;48.632;10.156;2022-10-31T16:42:32;49.33;;;32.33;;
4738;SDS011;2383;48.632;10.156;2022-10-31T16:46:34;46.83;;;28.75;;
4738;SDS011;2383;48.632;10.156;2022-10-31T16:50:44;37.85;;;26.48;;
4738;SDS011;2383;48.632;10.156;2022-10-31T16:54:47;39.10;;;25.33;;
4738;SDS011;2383;48.632;10.156;2022-10-31T16:58:49;38.30;;;27.80;;
4738;SDS011;2383;48.632;10.156;2022-10-31T17:03:01;46.22;;;30.35;;
4738;SDS011;2383;48.632;10.156;2022-10-31T17:07:03;65.63;;;42.28;;
4738;SDS011;2383;48.632;10.156;2022-10-31T17:11:05;65.60;;;41.33;;
4738;SDS011;2383;48.632;10.156;2022-10-31T17:15:20;79.03;;;50.13;;
4738;SDS011;2383;48.632;10.156;2022-10-31T17:19:26;67.35;;;37.58;;
4738;SDS011;2383;48.632;10.156;2022-10-31T17:23:32;45.40;;;32.05;;
4738;SDS011;2383;48.632;10.156;2022-10-31T17:27:34;43.63;;;32.65;;
4738;SDS011;2383;48.632;10.156;2022-10-31T17:31:38;52.30;;;32.45;;
4738;SDS011;2383;48.632;10.156;2022-10-31T17:35:44;55.65;;;35.80;;
4738;SDS011;2383;48.632;10.156;2022-10-31T17:39:48;48.17;;;31.50;;
4738;SDS011;2383;48.632;10.156;2022-10-31T17:44:04;41.53;;;30.03;;
4738;SDS011;2383;48.632;10.156;2022-10-31T17:48:06;42.25;;;29.88;;
4738;SDS011;2383;48.632;10.156;2022-10-31T17:52:11;41.75;;;30.05;;
4738;SDS011;2383;48.632;10.156;2022-10-31T17:56:13;43.70;;;30.73;;
4738;SDS011;2383;48.632;10.156;2022-10-31T18:00:16;36.23;;;25.40;;
4738;SDS011;2383;48.632;10.156;2022-10-31T18:04:35;29.25;;;20.45;;
4738;SDS011;2383;48.632;10.156;2022-10-31T18:08:38;24.27;;;19.20;;
4738;SDS011;2383;48.632;10.156;2022-10-31T18:12:41;35.75;;;24.63;;
4738;SDS011;2383;48.632;10.156;2022-10-31T18:16:51;28.57;;;21.03;;
4738;SDS011;2383;48.632;10.156;2022-10-31T18:20:55;33.00;;;22.93;;
4738;SDS011;2383;48.632;10.156;2022-10-31T18:24:58;53.87;;;33.03;;
4738;SDS011;2383;48.632;10.156;2022-10-31T18:29:02;56.78;;;36.03;;
4738;SDS011;2383;48.632;10.156;2022-10-31T18:33:04;51.13;;;32.70;;
4738;SDS011;2383;48.632;10.156;2022-10-31T18:37:06;41.47;;;29.07;;
4738;SDS011;2383;48.632;10.156;2022-10-31T18:41:07;47.73;;;34.27;;
4738;SDS011;2383;48.632;10.156;2022-10-31T18:45:09;83.57;;;39.22;;
4738;SDS011;2383;48.632;10.156;2022-10-31T18:49:31;70.03;;;34.67;;
4738;SDS011;2383;48.632;10.156;2022-10-31T18:53:34;116.23;;;56.23;;
4738;SDS011;2383;48.632;10.156;2022-10-31T18:57:36;81.15;;;38.50;;
4738;SDS011;2383;48.632;10.156;2022-10-31T19:01:38;77.60;;;31.23;;
4738;SDS011;2383;48.632;10.156;2022-10-31T19:05:42;82.28;;;32.08;;
4738;SDS011;2383;48.632;10.156;2022-10-31T19:09:44;53.33;;;26.43;;
4738;SDS011;2383;48.632;10.156;2022-10-31T19:13:46;107.47;;;35.90;;
4738;SDS011;2383;48.632;10.156;2022-10-31T19:17:48;101.63;;;32.10;;
4738;SDS011;2383;48.632;10.156;2022-10-31T19:21:50;69.07;;;26.47;;
4738;SDS011;2383;48.632;10.156;2022-10-31T19:25:52;69.97;;;25.57;;
4738;SDS011;2383;48.632;10.156;2022-10-31T19:30:05;72.73;;;28.67;;
4738;SDS011;2383;48.632;10.156;2022-10-31T19:34:10;94.95;;;27.70;;
4738;SDS011;2383;48.632;10.156;2022-10-31T19:38:12;105.63;;;30.07;;
4738;SDS011;2383;48.632;10.156;2022-10-31T19:42:13;113.17;;;29.90;;
4738;SDS011;2383;48.632;10.156;2022-10-31T19:46:16;81.85;;;31.63;;
4738;SDS011;2383;48.632;10.156;2022-10-31T19:50:39;65.87;;;29.43;;
4738;SDS011;2383;48.632;10.156;2022-10-31T19:54:40;82.20;;;29.77;;
4738;SDS011;2383;48.632;10.156;2022-10-31T19:58:57;71.15;;;32.42;;
4738;SDS011;2383;48.632;10.156;2022-10-31T20:03:03;55.00;;;27.40;;
4738;SDS011;2383;48.632;10.156;2022-10-31T20:07:05;79.43;;;28.67;;
4738;SDS011;2383;48.632;10.156;2022-10-31T20:11:08;63.10;;;26.65;;
4738;SDS011;2383;48.632;10.156;2022-10-31T20:15:09;41.97;;;25.90;;
4738;SDS011;2383;48.632;10.156;2022-10-31T20:19:11;45.38;;;26.98;;
4738;SDS011;2383;48.632;10.156;2022-10-31T20:23:13;55.90;;;28.10;;
4738;SDS011;2383;48.632;10.156;2022-10-31T20:27:15;96.90;;;24.60;;
4738;SDS011;2383;48.632;10.156;2022-10-31T20:31:18;76.57;;;27.13;;
4738;SDS011;2383;48.632;10.156;2022-10-31T20:35:21;74.93;;;27.65;;
4738;SDS011;2383;48.632;10.156;2022-10-31T20:39:22;92.10;;;23.57;;
4738;SDS011;2383;48.632;10.156;2022-10-31T20:43:24;55.47;;;21.23;;
4738;SDS011;2383;48.632;10.156;2022-10-31T20:47:26;74.10;;;26.43;;
4738;SDS011;2383;48.632;10.156;2022-10-31T20:51:27;45.70;;;24.53;;
4738;SDS011;2383;48.632;10.156;2022-10-31T20:55:32;30.37;;;21.60;;
4738;SDS011;2383;48.632;10.156;2022-10-31T20:59:34;73.22;;;23.48;;
4738;SDS011;2383;48.632;10.156;2022-10-31T21:03:35;42.10;;;20.43;;
4738;SDS011;2383;48.632;10.156;2022-10-31T21:07:38;42.03;;;19.53;;
4738;SDS011;2383;48.632;10.156;2022-10-31T21:11:40;31.73;;;20.67;;
4738;SDS011;2383;48.632;10.156;2022-10-31T21:15:42;29.95;;;19.10;;
4738;SDS011;2383;48.632;10.156;2022-10-31T21:19:43;29.40;;;20.40;;
4738;SDS011;2383;48.632;10.156;2022-10-31T21:23:47;67.13;;;22.20;;
4738;SDS011;2383;48.632;10.156;2022-10-31T21:27:53;42.17;;;24.53;;
4738;SDS011;2383;48.632;10.156;2022-10-31T21:31:55;56.90;;;24.90;;
4738;SDS011;2383;48.632;10.156;2022-10-31T21:35:57;26.87;;;23.33;;
4738;SDS011;2383;48.632;10.156;2022-10-31T21:39:58;36.60;;;24.40;;
4738;SDS011;2383;48.632;10.156;2022-10-31T21:44:00;35.60;;;25.63;;
4738;SDS011;2383;48.632;10.156;2022-10-31T21:48:02;42.17;;;26.23;;
4738;SDS011;2383;48.632;10.156;2022-10-31T21:52:04;31.13;;;25.13;;
4738;SDS011;2383;48.632;10.156;2022-10-31T21:56:06;34.53;;;26.77;;
4738;SDS011;2383;48.632;10.156;2022-10-31T22:00:08;38.70;;;25.90;;
4738;SDS011;2383;48.632;10.156;2022-10-31T22:04:10;41.37;;;26.27;;
4738;SDS011;2383;48.632;10.156;2022-10-31T22:08:12;49.07;;;25.07;;
4738;SDS011;2383;48.632;10.156;2022-10-31T22:12:14;37.57;;;23.63;;
4738;SDS011;2383;48.632;10.156;2022-10-31T22:16:17;31.00;;;24.07;;
4738;SDS011;2383;48.632;10.156;2022-10-31T22:20:20;61.40;;;24.80;;
4738;SDS011;2383;48.632;10.156;2022-10-31T22:24:24;48.40;;;24.07;;
4738;SDS011;2383;48.632;10.156;2022-10-31T22:28:27;80.63;;;23.60;;
4738;SDS011;2383;48.632;10.156;2022-10-31T22:32:30;56.70;;;21.33;;
4738;SDS011;2383;48.632;10.156;2022-10-31T22:36:31;59.15;;;23.05;;
4738;SDS011;2383;48.632;10.156;2022-10-31T22:40:33;162.70;;;23.47;;
4738;SDS011;2383;48.632;10.156;2022-10-31T22:44:35;157.57;;;23.53;;
4738;SDS011;2383;48.632;10.156;2022-10-31T22:48:38;53.47;;;20.67;;
4738;SDS011;2383;48.632;10.156;2022-10-31T22:52:44;121.63;;;22.20;;
4738;SDS011;2383;48.632;10.156;2022-10-31T22:56:46;81.43;;;20.37;;
4738;SDS011;2383;48.632;10.156;2022-10-31T23:00:48;91.53;;;19.90;;
4738;SDS011;2383;48.632;10.156;2022-10-31T23:04:49;56.37;;;18.97;;
4738;SDS011;2383;48.632;10.156;2022-10-31T23:08:52;47.63;;;19.53;;
4738;SDS011;2383;48.632;10.156;2022-10-31T23:12:54;52.17;;;18.60;;
4738;SDS011;2383;48.632;10.156;2022-10-31T23:17:14;71.87;;;20.30;;
4738;SDS011;2383;48.632;10.156;2022-10-31T23:21:19;40.50;;;21.50;;
4738;SDS011;2383;48.632;10.156;2022-10-31T23:25:44;51.47;;;20.20;;
4738;SDS011;2383;48.632;10.156;2022-10-31T23:30:04;35.47;;;20.07;;
4738;SDS011;2383;48.632;10.156;2022-10-31T23:34:06;76.03;;;20.07;;
4738;SDS011;2383;48.632;10.156;2022-10-31T23:38:08;31.20;;;18.57;;
4738;SDS011;2383;48.632;10.156;2022-10-31T23:42:09;41.70;;;20.40;;
4738;SDS011;2383;48.632;10.156;2022-10-31T23:46:11;37.50;;;18.97;;
4738;SDS011;2383;48.632;10.156;2022-10-31T23:50:13;37.43;;;18.90;;
4738;SDS011;2383;48.632;10.156;2022-10-31T23:54:15;53.40;;;19.30;;
4738;SDS011;2383;48.632;10.156;2022-10-31T23:58:16;58.73;;;18.80;;
